Time;durP1;ratioP1;P1;durP2;ratioP2;P2;SDS_P1;SDS_P2;PMS_P1;PMS_P2;Temp;Humidity;BMP_temperature;BMP_pressure;BME280_temperature;BME280_humidity;BME280_pressure;Samples;Min_cycle;Max_cycle;Signal;HPM_P1;HPM_P2
2021/09/09 00:00:07;;;;;;;15.80;9.32;;;;;;;;;;5103510;28;20055;-83
2021/09/09 00:02:38;;;;;;;14.57;10.43;;;;;;;;;;5122478;28;20203;-83
2021/09/09 00:05:15;;;;;;;16.88;9.70;;;;;;;;;;5113237;28;20043;-83
2021/09/09 00:07:41;;;;;;;17.05;10.10;;;;;;;;;;5135759;28;20047;-83
2021/09/09 00:10:08;;;;;;;17.17;10.45;;;;;;;;;;5106278;28;20047;-83
2021/09/09 00:12:38;;;;;;;20.73;11.00;;;;;;;;;;5099896;28;20047;-83
2021/09/09 00:15:08;;;;;;;25.88;10.80;;;;;;;;;;5093527;28;20051;-83
2021/09/09 00:17:35;;;;;;;17.63;10.45;;;;;;;;;;5102724;28;20146;-84
2021/09/09 00:20:02;;;;;;;19.40;10.55;;;;;;;;;;5105355;28;20120;-84
2021/09/09 00:22:31;;;;;;;14.63;10.73;;;;;;;;;;5101924;28;20098;-83
2021/09/09 00:24:58;;;;;;;17.02;10.75;;;;;;;;;;5102388;28;20598;-84
2021/09/09 00:27:27;;;;;;;16.23;10.50;;;;;;;;;;5121044;28;20056;-84
2021/09/09 00:29:56;;;;;;;16.50;10.80;;;;;;;;;;5121793;28;20285;-84
2021/09/09 00:32:38;;;;;;;13.18;10.23;;;;;;;;;;5122679;28;20047;-84
2021/09/09 00:35:05;;;;;;;15.32;10.68;;;;;;;;;;5122011;28;20051;-83
2021/09/09 00:37:34;;;;;;;14.80;10.02;;;;;;;;;;5103419;28;20083;-83
2021/09/09 00:40:00;;;;;;;13.85;10.38;;;;;;;;;;5122742;28;20343;-84
2021/09/09 00:42:27;;;;;;;13.95;10.10;;;;;;;;;;5131276;28;20099;-82
2021/09/09 00:44:54;;;;;;;19.20;10.55;;;;;;;;;;5137298;28;20110;-84
2021/09/09 00:47:24;;;;;;;19.55;11.20;;;;;;;;;;5128618;28;20430;-83
2021/09/09 00:49:51;;;;;;;19.35;12.02;;;;;;;;;;5122443;28;20043;-84
2021/09/09 00:52:18;;;;;;;19.65;11.18;;;;;;;;;;5106826;28;20047;-83
2021/09/09 00:54:46;;;;;;;15.55;11.02;;;;;;;;;;5134436;28;20035;-82
2021/09/09 00:57:14;;;;;;;18.35;11.02;;;;;;;;;;5109754;28;20424;-82
2021/09/09 00:59:41;;;;;;;16.83;11.57;;;;;;;;;;5089286;28;20055;-83
2021/09/09 01:02:07;;;;;;;17.88;12.02;;;;;;;;;;5100850;28;20432;-84
2021/09/09 01:04:34;;;;;;;17.90;11.23;;;;;;;;;;5082959;28;20040;-84
2021/09/09 01:07:01;;;;;;;22.30;12.50;;;;;;;;;;5083777;28;20178;-84
2021/09/09 01:09:28;;;;;;;16.88;11.30;;;;;;;;;;5102304;28;20082;-84
2021/09/09 01:11:57;;;;;;;20.00;11.18;;;;;;;;;;5083339;28;20093;-82
2021/09/09 01:14:24;;;;;;;18.42;11.93;;;;;;;;;;5084119;28;20097;-85
2021/09/09 01:16:57;;;;;;;17.95;11.20;;;;;;;;;;5105705;28;20090;-84
2021/09/09 01:19:23;;;;;;;16.75;10.85;;;;;;;;;;5118380;28;20062;-84
2021/09/09 01:21:50;;;;;;;17.90;11.45;;;;;;;;;;5125091;28;20111;-83
2021/09/09 01:24:21;;;;;;;20.67;13.68;;;;;;;;;;5124787;28;20055;-83
2021/09/09 01:26:50;;;;;;;22.20;13.02;;;;;;;;;;5131318;28;20062;-83
2021/09/09 01:29:17;;;;;;;21.98;12.95;;;;;;;;;;5133262;28;20057;-82
2021/09/09 01:31:44;;;;;;;18.73;11.85;;;;;;;;;;5129314;28;20065;-83
2021/09/09 01:34:14;;;;;;;19.15;12.32;;;;;;;;;;5106580;28;20350;-83
2021/09/09 01:36:41;;;;;;;24.02;13.48;;;;;;;;;;5105623;28;20085;-84
2021/09/09 01:39:08;;;;;;;20.30;12.50;;;;;;;;;;5104874;28;20083;-84
2021/09/09 01:41:35;;;;;;;23.80;14.00;;;;;;;;;;5122804;28;20055;-84
2021/09/09 01:44:01;;;;;;;20.48;13.20;;;;;;;;;;5099813;28;20112;-85
2021/09/09 01:46:29;;;;;;;20.10;13.02;;;;;;;;;;5100962;28;20086;-84
2021/09/09 01:48:57;;;;;;;24.38;13.00;;;;;;;;;;5102713;28;20079;-84
2021/09/09 01:51:29;;;;;;;21.30;13.45;;;;;;;;;;5101410;28;20048;-84
2021/09/09 01:53:57;;;;;;;18.98;13.48;;;;;;;;;;5101947;28;20400;-84
2021/09/09 01:56:23;;;;;;;23.65;13.80;;;;;;;;;;5101717;28;20079;-85
2021/09/09 01:58:50;;;;;;;22.70;14.57;;;;;;;;;;5110507;28;20070;-82
2021/09/09 02:01:17;;;;;;;19.17;13.02;;;;;;;;;;5115656;28;20056;-84
2021/09/09 02:03:44;;;;;;;22.88;14.25;;;;;;;;;;5113122;28;20052;-83
2021/09/09 02:06:15;;;;;;;18.02;12.93;;;;;;;;;;5111288;28;20055;-83
2021/09/09 02:08:41;;;;;;;21.58;13.73;;;;;;;;;;5100727;28;20058;-84
2021/09/09 02:11:08;;;;;;;22.75;13.48;;;;;;;;;;5098988;28;20059;-83
2021/09/09 02:13:36;;;;;;;21.58;13.90;;;;;;;;;;5098894;28;20048;-83
2021/09/09 02:16:09;;;;;;;21.85;13.77;;;;;;;;;;5099354;28;20075;-83
2021/09/09 02:18:36;;;;;;;22.27;15.52;;;;;;;;;;5100855;28;20052;-84
2021/09/09 02:21:02;;;;;;;23.98;14.90;;;;;;;;;;5100503;28;20064;-83
2021/09/09 02:23:37;;;;;;;22.88;14.63;;;;;;;;;;5105502;28;20052;-82
2021/09/09 02:26:06;;;;;;;20.13;14.60;;;;;;;;;;5109583;28;20032;-83
2021/09/09 02:28:36;;;;;;;22.60;14.52;;;;;;;;;;5107795;28;20062;-84
2021/09/09 02:31:03;;;;;;;18.85;13.50;;;;;;;;;;5102639;28;20048;-83
2021/09/09 02:33:39;;;;;;;20.27;12.60;;;;;;;;;;5102213;28;20101;-83
2021/09/09 02:36:06;;;;;;;23.15;13.52;;;;;;;;;;5099519;28;20048;-84
2021/09/09 02:38:32;;;;;;;24.30;14.15;;;;;;;;;;5100097;28;20066;-84
2021/09/09 02:41:07;;;;;;;22.23;14.98;;;;;;;;;;5100872;28;20043;-84
2021/09/09 02:43:43;;;;;;;20.02;12.90;;;;;;;;;;5099440;28;20068;-84
2021/09/09 02:46:09;;;;;;;21.30;13.60;;;;;;;;;;5099272;28;20078;-84
2021/09/09 02:48:36;;;;;;;27.98;15.15;;;;;;;;;;5100196;28;20065;-83
2021/09/09 02:51:03;;;;;;;17.60;12.73;;;;;;;;;;5099118;28;20051;-84
2021/09/09 02:53:30;;;;;;;22.00;15.43;;;;;;;;;;5098258;28;20067;-84
2021/09/09 02:56:07;;;;;;;22.40;13.68;;;;;;;;;;5100661;28;20044;-83
2021/09/09 02:58:36;;;;;;;17.92;13.35;;;;;;;;;;5104248;28;20060;-85
2021/09/09 03:01:03;;;;;;;19.80;14.07;;;;;;;;;;5111387;28;20408;-83
2021/09/09 03:03:30;;;;;;;21.10;15.00;;;;;;;;;;5112105;28;20044;-84
2021/09/09 03:06:00;;;;;;;23.55;14.57;;;;;;;;;;5104342;28;20044;-84
2021/09/09 03:08:30;;;;;;;26.20;15.18;;;;;;;;;;5097954;28;20062;-84
2021/09/09 03:10:56;;;;;;;22.85;15.63;;;;;;;;;;5110065;28;20092;-83
2021/09/09 03:13:23;;;;;;;26.92;16.08;;;;;;;;;;5106483;28;20071;-84
2021/09/09 03:15:51;;;;;;;21.58;15.77;;;;;;;;;;5101320;28;20063;-84
2021/09/09 03:18:18;;;;;;;24.08;15.75;;;;;;;;;;5109183;28;20036;-84
2021/09/09 03:20:45;;;;;;;25.77;16.30;;;;;;;;;;5098396;28;20059;-84
2021/09/09 03:23:12;;;;;;;22.42;16.15;;;;;;;;;;5099079;28;20113;-83
2021/09/09 03:25:39;;;;;;;30.15;16.75;;;;;;;;;;5101178;28;20078;-84
2021/09/09 03:28:15;;;;;;;25.52;17.42;;;;;;;;;;5097732;28;20147;-84
2021/09/09 03:30:41;;;;;;;;;;;;;;;;;;5099845;28;20044;-84
2021/09/09 03:33:11;;;;;;;22.40;15.65;;;;;;;;;;5097710;28;19945;-84
2021/09/09 03:35:39;;;;;;;24.30;16.85;;;;;;;;;;5099616;28;20045;-84
2021/09/09 03:38:15;;;;;;;23.67;15.10;;;;;;;;;;5098065;28;20087;-84
2021/09/09 03:40:42;;;;;;;24.90;16.88;;;;;;;;;;5102845;28;20052;-85
2021/09/09 03:43:08;;;;;;;29.00;16.17;;;;;;;;;;5124270;27;20050;-83
2021/09/09 03:45:35;;;;;;;26.45;16.33;;;;;;;;;;5135238;27;20059;-82
2021/09/09 03:48:04;;;;;;;24.88;15.30;;;;;;;;;;5105343;28;20044;-83
2021/09/09 03:50:31;;;;;;;22.65;15.20;;;;;;;;;;5123001;28;20059;-82
2021/09/09 03:52:58;;;;;;;26.25;16.50;;;;;;;;;;5131595;27;20095;-85
2021/09/09 03:55:36;;;;;;;22.90;16.25;;;;;;;;;;5115915;28;20047;-82
2021/09/09 03:58:03;;;;;;;31.88;17.02;;;;;;;;;;5122896;28;20285;-84
2021/09/09 04:00:30;;;;;;;30.67;17.60;;;;;;;;;;5104279;27;20052;-82
2021/09/09 04:02:59;;;;;;;23.75;15.98;;;;;;;;;;5124306;27;20145;-84
2021/09/09 04:05:28;;;;;;;22.38;16.00;;;;;;;;;;5142110;27;20078;-83
2021/09/09 04:07:58;;;;;;;25.92;16.58;;;;;;;;;;5141418;27;20055;-84
2021/09/09 04:10:27;;;;;;;24.73;16.83;;;;;;;;;;5142049;27;20286;-83
2021/09/09 04:12:54;;;;;;;30.45;17.95;;;;;;;;;;5126826;27;20058;-83
2021/09/09 04:15:21;;;;;;;25.25;17.02;;;;;;;;;;5142276;27;20126;-84
2021/09/09 04:17:51;;;;;;;24.73;16.50;;;;;;;;;;5141453;27;20311;-83
2021/09/09 04:20:22;;;;;;;28.17;18.75;;;;;;;;;;5123964;27;20051;-83
2021/09/09 04:22:49;;;;;;;30.63;19.67;;;;;;;;;;5143407;27;20047;-84
2021/09/09 04:25:16;;;;;;;30.50;18.85;;;;;;;;;;5144921;27;20071;-83
2021/09/09 04:27:46;;;;;;;30.15;19.83;;;;;;;;;;5137461;27;20039;-83
2021/09/09 04:30:12;;;;;;;29.88;20.75;;;;;;;;;;5153888;27;20057;-83
2021/09/09 04:32:39;;;;;;;27.52;18.40;;;;;;;;;;5156365;27;20043;-84
2021/09/09 04:35:06;;;;;;;29.52;19.63;;;;;;;;;;5137041;27;20039;-84
2021/09/09 04:37:36;;;;;;;25.65;18.60;;;;;;;;;;5133416;27;20415;-84
2021/09/09 04:40:03;;;;;;;27.73;18.77;;;;;;;;;;5104171;28;20051;-84
2021/09/09 04:42:36;;;;;;;33.08;19.70;;;;;;;;;;5089325;28;20130;-84
2021/09/09 04:45:04;;;;;;;28.23;19.30;;;;;;;;;;5082672;28;20378;-84
2021/09/09 04:47:45;;;;;;;29.55;19.45;;;;;;;;;;5105274;28;20486;-84
2021/09/09 04:50:11;;;;;;;35.60;21.42;;;;;;;;;;5100866;27;20039;-84
2021/09/09 04:52:38;;;;;;;27.25;18.83;;;;;;;;;;5139598;27;20491;-85
2021/09/09 04:55:05;;;;;;;31.90;20.02;;;;;;;;;;5139345;27;20504;-84
2021/09/09 04:57:32;;;;;;;29.20;18.70;;;;;;;;;;5084312;28;20504;-84
2021/09/09 05:00:02;;;;;;;32.45;20.27;;;;;;;;;;5121608;28;20047;-84
2021/09/09 05:02:29;;;;;;;30.83;20.58;;;;;;;;;;5109354;27;20039;-85
2021/09/09 05:04:56;;;;;;;30.45;20.77;;;;;;;;;;5106646;28;20320;-84
2021/09/09 05:07:23;;;;;;;31.40;19.55;;;;;;;;;;5100723;28;20133;-84
2021/09/09 05:09:49;;;;;;;31.45;20.50;;;;;;;;;;5117234;27;20426;-84
2021/09/09 05:12:16;;;;;;;31.08;20.75;;;;;;;;;;5124004;27;20457;-84
2021/09/09 05:14:47;;;;;;;31.90;21.75;;;;;;;;;;5138721;27;20061;-83
2021/09/09 05:17:14;;;;;;;31.33;19.42;;;;;;;;;;5113027;27;20094;-83
2021/09/09 05:19:41;;;;;;;26.35;18.30;;;;;;;;;;5130935;27;20074;-84
2021/09/09 05:22:09;;;;;;;27.30;19.15;;;;;;;;;;5123733;27;20054;-84
2021/09/09 05:24:35;;;;;;;28.00;17.08;;;;;;;;;;5149229;27;20057;-84
2021/09/09 05:27:05;;;;;;;25.10;16.63;;;;;;;;;;5113214;28;20051;-84
2021/09/09 05:29:35;;;;;;;23.15;16.02;;;;;;;;;;5126467;28;20067;-83
2021/09/09 05:32:02;;;;;;;23.95;14.90;;;;;;;;;;5110808;28;20056;-83
2021/09/09 05:34:29;;;;;;;19.67;13.52;;;;;;;;;;5119111;28;20047;-84
2021/09/09 05:36:58;;;;;;;21.17;13.35;;;;;;;;;;5115915;27;20441;-84
2021/09/09 05:39:25;;;;;;;18.25;13.50;;;;;;;;;;5135022;27;20051;-84
2021/09/09 05:41:52;;;;;;;20.83;12.98;;;;;;;;;;5115884;27;20149;-84
2021/09/09 05:44:28;;;;;;;19.95;13.73;;;;;;;;;;5109915;28;20071;-85
2021/09/09 05:46:55;;;;;;;17.80;12.90;;;;;;;;;;5113910;27;20075;-84
2021/09/09 05:49:21;;;;;;;21.15;13.80;;;;;;;;;;5113583;28;20051;-84
2021/09/09 05:51:53;;;;;;;21.65;13.13;;;;;;;;;;5114145;28;20047;-84
2021/09/09 05:54:20;;;;;;;22.15;13.23;;;;;;;;;;5133373;27;20154;-83
2021/09/09 05:56:49;;;;;;;21.17;12.93;;;;;;;;;;5102084;28;20217;-84
2021/09/09 05:59:22;;;;;;;22.00;13.32;;;;;;;;;;5095823;28;20284;-84
2021/09/09 06:01:50;;;;;;;18.75;12.40;;;;;;;;;;5123262;28;20091;-84
2021/09/09 06:04:17;;;;;;;20.30;12.80;;;;;;;;;;5126402;28;20047;-84
2021/09/09 06:06:44;;;;;;;21.38;13.48;;;;;;;;;;5105686;28;20044;-84
2021/09/09 06:09:17;;;;;;;35.67;14.13;;;;;;;;;;5094453;28;20061;-83
2021/09/09 06:11:44;;;;;;;19.58;13.57;;;;;;;;;;5112386;28;20043;-84
2021/09/09 06:14:11;;;;;;;22.40;13.75;;;;;;;;;;5112386;28;20368;-84
2021/09/09 06:16:43;;;;;;;18.05;14.13;;;;;;;;;;5128693;27;20044;-83
2021/09/09 06:19:10;;;;;;;24.02;13.57;;;;;;;;;;5112158;28;20143;-83
2021/09/09 06:21:36;;;;;;;23.02;14.75;;;;;;;;;;5094359;28;20098;-84
2021/09/09 06:24:07;;;;;;;22.08;13.98;;;;;;;;;;5097610;28;20253;-83
2021/09/09 06:26:34;;;;;;;23.38;14.65;;;;;;;;;;5099966;28;20048;-83
2021/09/09 06:29:00;;;;;;;23.92;15.07;;;;;;;;;;5112062;28;20074;-84
2021/09/09 06:31:28;;;;;;;22.58;14.23;;;;;;;;;;5095348;28;20048;-84
2021/09/09 06:33:55;;;;;;;25.40;14.68;;;;;;;;;;5095159;28;20051;-84
2021/09/09 06:36:22;;;;;;;21.48;13.80;;;;;;;;;;5111413;28;20063;-83
2021/09/09 06:38:48;;;;;;;23.02;14.55;;;;;;;;;;5103550;28;20194;-82
2021/09/09 06:41:18;;;;;;;19.80;14.05;;;;;;;;;;5111882;28;20089;-85
2021/09/09 06:43:48;;;;;;;21.05;14.93;;;;;;;;;;5102860;28;20036;-83
2021/09/09 06:46:16;;;;;;;23.40;14.52;;;;;;;;;;5097018;28;20098;-83
2021/09/09 06:48:46;;;;;;;26.90;15.38;;;;;;;;;;5076462;28;20064;-83
2021/09/09 06:51:14;;;;;;;22.10;15.63;;;;;;;;;;5079010;28;20091;-83
2021/09/09 06:53:41;;;;;;;24.02;14.40;;;;;;;;;;5096137;28;20124;-83
2021/09/09 06:56:08;;;;;;;26.38;14.77;;;;;;;;;;5105382;28;20051;-83
2021/09/09 06:58:50;;;;;;;24.20;15.48;;;;;;;;;;5092732;28;20111;-85
2021/09/09 07:01:17;;;;;;;23.08;13.95;;;;;;;;;;5103165;28;20051;-83
2021/09/09 07:03:49;;;;;;;23.80;14.35;;;;;;;;;;5111444;28;20254;-84
2021/09/09 07:06:16;;;;;;;18.73;14.00;;;;;;;;;;5094785;28;20269;-83
2021/09/09 07:08:43;;;;;;;23.00;13.68;;;;;;;;;;5092522;28;20327;-83
2021/09/09 07:11:09;;;;;;;22.45;14.02;;;;;;;;;;5091834;28;20103;-83
2021/09/09 07:16:30;;;;;;;19.27;13.10;;;;;;;;;;5122826;28;20048;-83
2021/09/09 07:18:58;;;;;;;18.58;12.95;;;;;;;;;;5117533;28;20048;-84
2021/09/09 07:21:25;;;;;;;25.77;14.52;;;;;;;;;;5115203;28;20122;-84
2021/09/09 07:23:52;;;;;;;23.23;12.27;;;;;;;;;;5118660;28;20043;-84
2021/09/09 07:26:19;;;;;;;17.63;12.68;;;;;;;;;;5116434;28;20070;-83
2021/09/09 07:28:45;;;;;;;22.88;12.73;;;;;;;;;;5094308;28;20136;-83
2021/09/09 07:31:12;;;;;;;21.08;13.02;;;;;;;;;;5097350;28;20047;-83
2021/09/09 07:33:39;;;;;;;21.00;12.30;;;;;;;;;;5102296;28;20062;-83
2021/09/09 07:36:09;;;;;;;19.42;12.57;;;;;;;;;;5107130;28;20080;-84
2021/09/09 07:38:35;;;;;;;20.25;13.35;;;;;;;;;;5107714;28;20116;-83
2021/09/09 07:41:06;;;;;;;23.02;13.38;;;;;;;;;;5098310;28;20138;-85
2021/09/09 07:43:33;;;;;;;17.70;11.75;;;;;;;;;;5106524;28;20179;-83
2021/09/09 07:46:00;;;;;;;21.67;12.55;;;;;;;;;;5076813;28;20040;-84
2021/09/09 07:48:27;;;;;;;22.85;13.30;;;;;;;;;;5093665;28;20111;-84
2021/09/09 07:50:54;;;;;;;19.38;12.63;;;;;;;;;;5095584;28;20208;-84
2021/09/09 07:53:21;;;;;;;23.48;13.52;;;;;;;;;;5110388;28;20333;-83
2021/09/09 07:56:14;;;;;;;23.38;12.15;;;;;;;;;;5120841;28;20040;-82
2021/09/09 07:58:43;;;;;;;17.77;12.20;;;;;;;;;;5087493;28;20039;-83
2021/09/09 08:04:31;;;;;;;20.25;12.82;;;;;;;;;;5099920;28;20031;-83
2021/09/09 08:06:58;;;;;;;15.65;12.80;;;;;;;;;;5097206;28;20048;-84
2021/09/09 08:09:29;;;;;;;17.88;12.73;;;;;;;;;;5096155;28;20101;-83
2021/09/09 08:11:56;;;;;;;20.70;11.73;;;;;;;;;;5096273;28;20360;-83
2021/09/09 08:14:26;;;;;;;19.27;11.35;;;;;;;;;;5079411;28;20048;-84
2021/09/09 08:16:54;;;;;;;27.88;11.75;;;;;;;;;;5100757;28;20044;-84
2021/09/09 08:19:24;;;;;;;20.45;11.95;;;;;;;;;;5098139;28;20170;-83
2021/09/09 08:21:51;;;;;;;18.05;11.57;;;;;;;;;;5098078;28;20048;-83
2021/09/09 08:24:18;;;;;;;16.52;11.57;;;;;;;;;;5080487;28;20381;-84
2021/09/09 08:26:45;;;;;;;16.35;11.25;;;;;;;;;;5096519;28;20056;-84
2021/09/09 08:29:15;;;;;;;17.98;11.65;;;;;;;;;;5096640;28;20591;-83
2021/09/09 08:31:46;;;;;;;15.52;10.65;;;;;;;;;;5101011;28;20443;-85
2021/09/09 08:34:35;;;;;;;18.45;11.20;;;;;;;;;;5119150;28;20097;-84
2021/09/09 08:37:06;;;;;;;17.90;11.07;;;;;;;;;;5132300;27;20083;-83
2021/09/09 08:39:38;;;;;;;17.45;11.73;;;;;;;;;;5095284;28;20043;-83
2021/09/09 08:42:05;;;;;;;19.23;10.73;;;;;;;;;;5116309;27;20096;-84
2021/09/09 08:44:37;;;;;;;15.75;11.20;;;;;;;;;;5152393;27;20107;-84
2021/09/09 08:47:07;;;;;;;14.63;9.90;;;;;;;;;;5118333;27;20369;-84
2021/09/09 08:49:34;;;;;;;15.25;10.57;;;;;;;;;;5134769;27;20184;-83
2021/09/09 08:52:03;;;;;;;15.48;10.10;;;;;;;;;;5136106;27;20039;-84
2021/09/09 08:54:34;;;;;;;14.13;10.73;;;;;;;;;;5136529;27;20047;-82
2021/09/09 08:57:03;;;;;;;14.93;10.18;;;;;;;;;;5138066;27;20423;-84
2021/09/09 08:59:29;;;;;;;15.23;10.13;;;;;;;;;;5117526;27;20047;-83
2021/09/09 09:02:08;;;;;;;14.27;9.95;;;;;;;;;;5111456;27;20181;-83
2021/09/09 09:04:37;;;;;;;17.83;9.52;;;;;;;;;;5119152;27;20051;-84
2021/09/09 09:07:05;;;;;;;16.17;10.05;;;;;;;;;;5128526;27;20070;-83
2021/09/09 09:09:47;;;;;;;12.27;9.80;;;;;;;;;;5114892;27;20062;-83
2021/09/09 09:12:17;;;;;;;14.63;9.82;;;;;;;;;;5144715;27;20110;-83
2021/09/09 09:14:43;;;;;;;15.55;9.27;;;;;;;;;;5128143;27;20050;-83
2021/09/09 09:17:11;;;;;;;16.73;10.18;;;;;;;;;;5129838;27;20053;-84
2021/09/09 09:19:41;;;;;;;13.98;9.90;;;;;;;;;;5109542;27;20127;-84
2021/09/09 09:22:13;;;;;;;12.43;9.45;;;;;;;;;;5127403;27;20135;-83
2021/09/09 09:24:50;;;;;;;14.43;9.40;;;;;;;;;;5103944;28;20191;-83
2021/09/09 09:27:18;;;;;;;15.52;8.85;;;;;;;;;;5111807;28;20056;-83
2021/09/09 09:30:02;;;;;;;14.20;9.40;;;;;;;;;;5094836;28;20044;-83
2021/09/09 09:32:43;;;;;;;14.57;9.10;;;;;;;;;;5098931;27;20119;-83
2021/09/09 09:35:21;;;;;;;14.00;8.93;;;;;;;;;;5104275;27;20086;-83
2021/09/09 09:37:55;;;;;;;17.83;9.85;;;;;;;;;;5110532;27;20061;-86
2021/09/09 09:40:24;;;;;;;12.02;8.82;;;;;;;;;;5131711;27;20125;-84
2021/09/09 09:42:50;;;;;;;18.83;9.02;;;;;;;;;;5116257;27;20035;-84
2021/09/09 09:45:18;;;;;;;16.98;8.48;;;;;;;;;;5141904;27;20064;-83
2021/09/09 09:47:48;;;;;;;13.13;8.45;;;;;;;;;;5085823;28;20055;-83
2021/09/09 09:50:21;;;;;;;13.23;8.68;;;;;;;;;;5078113;28;20157;-84
2021/09/09 09:53:13;;;;;;;10.75;8.80;;;;;;;;;;5094472;28;20051;-84
2021/09/09 09:55:41;;;;;;;18.00;8.50;;;;;;;;;;5105830;28;20062;-83
2021/09/09 09:58:28;;;;;;;14.75;8.40;;;;;;;;;;5101075;28;20055;-84
2021/09/09 10:00:55;;;;;;;14.90;8.82;;;;;;;;;;5115536;28;20055;-83
2021/09/09 10:03:25;;;;;;;11.63;8.70;;;;;;;;;;5113966;28;20108;-84
2021/09/09 10:06:03;;;;;;;15.60;9.43;;;;;;;;;;5094012;28;20134;-82
2021/09/09 10:08:30;;;;;;;15.88;8.25;;;;;;;;;;5081941;28;20249;-84
2021/09/09 10:10:56;;;;;;;16.83;8.98;;;;;;;;;;5112816;28;20067;-84
2021/09/09 10:13:26;;;;;;;13.73;7.65;;;;;;;;;;5092235;28;20047;-83
2021/09/09 10:15:54;;;;;;;14.10;7.80;;;;;;;;;;5105532;28;20583;-84
2021/09/09 10:18:27;;;;;;;13.52;9.40;;;;;;;;;;5089078;28;20111;-84
2021/09/09 10:20:54;;;;;;;15.23;8.65;;;;;;;;;;5075957;28;20055;-83
2021/09/09 10:23:25;;;;;;;12.50;8.02;;;;;;;;;;5077008;28;20086;-83
2021/09/09 10:25:54;;;;;;;15.48;8.38;;;;;;;;;;5076945;28;20040;-84
2021/09/09 10:28:37;;;;;;;11.95;8.02;;;;;;;;;;5101053;28;20117;-85
2021/09/09 10:31:05;;;;;;;9.52;7.20;;;;;;;;;;5127166;28;20055;-84
2021/09/09 10:33:38;;;;;;;12.40;7.60;;;;;;;;;;5109718;28;20055;-85
2021/09/09 10:36:35;;;;;;;21.02;8.20;;;;;;;;;;5110854;28;20243;-84
2021/09/09 10:39:05;;;;;;;13.98;7.05;;;;;;;;;;5095034;28;20045;-84
2021/09/09 10:41:32;;;;;;;13.00;7.30;;;;;;;;;;5116018;27;20051;-84
2021/09/09 10:44:01;;;;;;;11.40;7.82;;;;;;;;;;5093441;28;20083;-83
2021/09/09 10:46:32;;;;;;;11.57;6.70;;;;;;;;;;5092768;28;20285;-84
2021/09/09 10:49:04;;;;;;;13.18;7.32;;;;;;;;;;5089181;28;20219;-84
2021/09/09 10:51:31;;;;;;;8.23;6.65;;;;;;;;;;5087953;28;20457;-84
2021/09/09 10:54:01;;;;;;;10.88;7.03;;;;;;;;;;5091342;28;20048;-85
2021/09/09 10:56:37;;;;;;;14.52;7.55;;;;;;;;;;5096119;28;20509;-84
2021/09/09 10:59:19;;;;;;;10.48;6.88;;;;;;;;;;5091498;28;20044;-84
2021/09/09 11:01:46;;;;;;;18.40;7.00;;;;;;;;;;5087080;28;20079;-84
2021/09/09 11:04:33;;;;;;;10.55;7.10;;;;;;;;;;5086247;28;20116;-84
2021/09/09 11:07:22;;;;;;;18.75;8.13;;;;;;;;;;5084951;28;20044;-84
2021/09/09 11:10:08;;;;;;;11.55;6.68;;;;;;;;;;5095059;28;20048;-84
2021/09/09 11:12:58;;;;;;;20.42;7.07;;;;;;;;;;5103472;28;20048;-83
2021/09/09 11:15:30;;;;;;;11.02;6.80;;;;;;;;;;5100991;28;20072;-84
2021/09/09 11:17:57;;;;;;;11.40;7.28;;;;;;;;;;5093170;28;20164;-84
2021/09/09 11:20:31;;;;;;;11.35;6.10;;;;;;;;;;5106931;28;20052;-84
2021/09/09 11:23:08;;;;;;;8.68;6.03;;;;;;;;;;5090071;28;20605;-84
2021/09/09 11:25:44;;;;;;;9.30;6.72;;;;;;;;;;5094571;28;20052;-85
2021/09/09 11:28:15;;;;;;;12.90;6.03;;;;;;;;;;5097493;28;20072;-84
2021/09/09 11:31:02;;;;;;;9.68;6.13;;;;;;;;;;5085633;28;20397;-86
2021/09/09 11:33:31;;;;;;;10.27;6.43;;;;;;;;;;5112327;28;20063;-84
2021/09/09 11:36:08;;;;;;;10.73;5.90;;;;;;;;;;5124330;27;20339;-84
2021/09/09 11:38:34;;;;;;;13.95;5.90;;;;;;;;;;5091959;28;20101;-85
2021/09/09 11:41:11;;;;;;;10.23;6.93;;;;;;;;;;5090955;28;20138;-84
2021/09/09 11:44:06;;;;;;;10.63;6.10;;;;;;;;;;5104291;28;20087;-86
2021/09/09 11:46:36;;;;;;;9.80;6.50;;;;;;;;;;5113898;28;20063;-84
2021/09/09 11:49:12;;;;;;;10.77;6.55;;;;;;;;;;5107501;28;20532;-84
2021/09/09 11:51:44;;;;;;;10.65;6.82;;;;;;;;;;5112101;28;20058;-85
2021/09/09 11:54:10;;;;;;;10.55;6.35;;;;;;;;;;5116713;28;20075;-84
2021/09/09 11:56:46;;;;;;;9.60;6.53;;;;;;;;;;5109900;28;20211;-85
2021/09/09 11:59:25;;;;;;;10.18;5.95;;;;;;;;;;5121831;27;20055;-84
2021/09/09 12:02:01;;;;;;;8.95;6.55;;;;;;;;;;5123732;28;20196;-85
2021/09/09 12:04:29;;;;;;;13.02;6.95;;;;;;;;;;5129977;27;20079;-84
2021/09/09 12:06:56;;;;;;;15.30;6.65;;;;;;;;;;5126863;28;20074;-86
2021/09/09 12:09:32;;;;;;;8.65;6.22;;;;;;;;;;5099204;28;20082;-86
2021/09/09 12:12:04;;;;;;;7.55;6.15;;;;;;;;;;5095744;28;20044;-84
2021/09/09 12:14:34;;;;;;;10.70;6.60;;;;;;;;;;5094916;28;20286;-83
2021/09/09 12:17:08;;;;;;;10.75;6.70;;;;;;;;;;5099238;28;20379;-84
2021/09/09 12:19:57;;;;;;;13.77;7.13;;;;;;;;;;5095447;28;20112;-85
2021/09/09 12:22:46;;;;;;;9.90;6.75;;;;;;;;;;5096018;28;20297;-85
2021/09/09 12:25:16;;;;;;;15.43;6.75;;;;;;;;;;5108792;28;20202;-84
2021/09/09 12:28:14;;;;;;;13.55;6.80;;;;;;;;;;5106176;28;20039;-82
2021/09/09 12:30:55;;;;;;;10.40;6.53;;;;;;;;;;5108208;28;20069;-84
2021/09/09 12:33:30;;;;;;;10.90;6.70;;;;;;;;;;5096379;28;20192;-83
2021/09/09 12:36:20;;;;;;;8.23;6.32;;;;;;;;;;5094632;28;20350;-84
2021/09/09 12:38:50;;;;;;;9.80;6.65;;;;;;;;;;5092936;28;20177;-84
2021/09/09 12:41:16;;;;;;;12.18;6.35;;;;;;;;;;5123766;27;20059;-83
2021/09/09 12:43:51;;;;;;;10.23;6.55;;;;;;;;;;5109313;27;20091;-84
2021/09/09 12:46:28;;;;;;;8.67;6.40;;;;;;;;;;5127194;27;20453;-84
2021/09/09 12:49:07;;;;;;;8.00;6.45;;;;;;;;;;5105153;27;20066;-83
2021/09/09 12:51:35;;;;;;;11.38;6.03;;;;;;;;;;5109112;28;20063;-84
2021/09/09 12:54:02;;;;;;;8.57;6.35;;;;;;;;;;5126155;27;20104;-83
2021/09/09 12:56:29;;;;;;;9.52;6.07;;;;;;;;;;5129055;27;20090;-83
2021/09/09 12:58:55;;;;;;;8.32;6.28;;;;;;;;;;5101981;28;20039;-84
2021/09/09 13:01:22;;;;;;;13.50;5.80;;;;;;;;;;5112303;28;20048;-84
2021/09/09 13:03:49;;;;;;;14.27;6.28;;;;;;;;;;5094250;28;20058;-84
2021/09/09 13:06:16;;;;;;;9.15;6.28;;;;;;;;;;5123094;27;20199;-82
2021/09/09 13:08:43;;;;;;;10.23;6.43;;;;;;;;;;5086796;28;20455;-85
2021/09/09 13:11:10;;;;;;;9.48;5.57;;;;;;;;;;5111668;28;20074;-83
2021/09/09 13:13:40;;;;;;;8.30;5.95;;;;;;;;;;5126881;27;20043;-84
2021/09/09 13:16:07;;;;;;;10.43;6.68;;;;;;;;;;5091851;28;20077;-84
2021/09/09 13:18:39;;;;;;;8.57;6.25;;;;;;;;;;5109452;28;20051;-84
2021/09/09 13:21:30;;;;;;;8.80;6.30;;;;;;;;;;5089704;28;20047;-82
2021/09/09 13:23:58;;;;;;;9.82;6.15;;;;;;;;;;5103408;28;20298;-82
2021/09/09 13:26:27;;;;;;;8.20;5.88;;;;;;;;;;5109353;28;20048;-82
2021/09/09 13:29:00;;;;;;;8.82;5.40;;;;;;;;;;5092526;28;20326;-80
2021/09/09 13:31:27;;;;;;;9.80;6.13;;;;;;;;;;5084970;28;20055;-82
2021/09/09 13:33:58;;;;;;;10.15;6.03;;;;;;;;;;5084958;28;20046;-83
2021/09/09 13:36:36;;;;;;;7.13;5.57;;;;;;;;;;5112785;28;20044;-82
2021/09/09 13:39:05;;;;;;;9.35;6.03;;;;;;;;;;5095067;28;20043;-83
2021/09/09 13:41:35;;;;;;;8.05;6.05;;;;;;;;;;5110939;28;20066;-82
2021/09/09 13:44:08;;;;;;;8.52;6.20;;;;;;;;;;5121368;28;20078;-82
2021/09/09 13:46:38;;;;;;;9.35;5.88;;;;;;;;;;5123350;28;20040;-82
2021/09/09 13:49:05;;;;;;;8.88;5.90;;;;;;;;;;5111866;28;20056;-82
2021/09/09 13:51:31;;;;;;;8.40;5.60;;;;;;;;;;5109887;27;20058;-82
2021/09/09 13:53:58;;;;;;;9.63;5.57;;;;;;;;;;5090354;28;20177;-82
2021/09/09 13:56:28;;;;;;;12.30;5.85;;;;;;;;;;5089453;28;20220;-81
2021/09/09 13:58:54;;;;;;;7.57;5.60;;;;;;;;;;5090223;28;20083;-82
2021/09/09 14:01:21;;;;;;;11.57;5.70;;;;;;;;;;5075487;28;20285;-83
2021/09/09 14:03:52;;;;;;;7.47;6.00;;;;;;;;;;5073694;28;20067;-82
2021/09/09 14:06:35;;;;;;;11.10;5.85;;;;;;;;;;5116643;28;20069;-82
2021/09/09 14:09:02;;;;;;;9.80;5.80;;;;;;;;;;5100834;28;20051;-83
2021/09/09 14:11:30;;;;;;;9.35;5.90;;;;;;;;;;5102155;28;20062;-82
2021/09/09 14:13:57;;;;;;;14.50;5.93;;;;;;;;;;5120050;28;20445;-82
2021/09/09 14:16:24;;;;;;;10.25;6.22;;;;;;;;;;5101142;28;20039;-83
2021/09/09 14:18:51;;;;;;;8.63;6.15;;;;;;;;;;5100790;28;20105;-83
2021/09/09 14:21:21;;;;;;;11.15;6.05;;;;;;;;;;5100319;28;20277;-81
2021/09/09 14:23:56;;;;;;;9.60;6.00;;;;;;;;;;5110515;28;20150;-82
2021/09/09 14:26:23;;;;;;;8.98;6.00;;;;;;;;;;5089713;28;20062;-83
2021/09/09 14:28:50;;;;;;;12.30;5.53;;;;;;;;;;5077277;28;20048;-83
2021/09/09 14:31:17;;;;;;;11.60;6.13;;;;;;;;;;5080698;28;20089;-81
2021/09/09 14:33:46;;;;;;;9.02;6.18;;;;;;;;;;5109229;28;20035;-81
2021/09/09 14:36:13;;;;;;;7.22;5.65;;;;;;;;;;5094955;28;20557;-81
2021/09/09 14:38:40;;;;;;;10.88;6.13;;;;;;;;;;5092374;28;20048;-82
2021/09/09 14:41:07;;;;;;;11.50;5.85;;;;;;;;;;5106360;28;20083;-83
2021/09/09 14:43:33;;;;;;;11.70;6.10;;;;;;;;;;5100418;28;20067;-82
2021/09/09 14:46:00;;;;;;;9.15;5.75;;;;;;;;;;5112317;28;20058;-82